createdAt,value
2022-12-18T00:02:12.572Z,2.63
2022-12-18T00:04:39.399Z,2.64
2022-12-18T00:07:06.246Z,2.64
2022-12-18T00:09:40.220Z,2.65
2022-12-18T00:14:43.258Z,2.46
2022-12-18T00:17:10.124Z,2.63
2022-12-18T00:19:37.009Z,2.56
2022-12-18T00:22:03.901Z,2.58
2022-12-18T00:24:30.762Z,2.57
2022-12-18T00:26:57.585Z,2.57
2022-12-18T00:29:24.447Z,2.54
2022-12-18T00:31:51.359Z,2.48
2022-12-18T00:34:18.217Z,2.54
2022-12-18T00:36:45.074Z,2.52
2022-12-18T00:39:13.127Z,2.43
2022-12-18T00:41:58.339Z,2.49
2022-12-18T00:44:26.005Z,2.49
2022-12-18T00:46:52.938Z,2.50
2022-12-18T00:49:20.349Z,2.47
2022-12-18T00:51:47.348Z,2.47
2022-12-18T00:54:14.449Z,2.51
2022-12-18T00:56:49.728Z,2.52
2022-12-18T00:59:18.319Z,2.31
2022-12-18T01:01:45.797Z,2.40
2022-12-18T01:04:12.857Z,2.41
2022-12-18T01:06:39.787Z,2.32
2022-12-18T01:09:07.271Z,2.43
2022-12-18T01:11:36.998Z,2.42
2022-12-18T01:14:04.952Z,2.23
2022-12-18T01:16:32.132Z,2.39
2022-12-18T01:18:59.021Z,2.36
2022-12-18T01:21:27.767Z,2.39
2022-12-18T01:23:55.587Z,2.41
2022-12-18T01:26:24.055Z,2.42
2022-12-18T01:28:51.207Z,2.44
2022-12-18T01:31:18.033Z,2.44
2022-12-18T01:33:45.206Z,2.44
2022-12-18T01:36:25.688Z,2.45
2022-12-18T01:38:52.661Z,2.44
2022-12-18T01:41:21.196Z,2.44
2022-12-18T01:43:56.156Z,2.42
2022-12-18T01:46:26.667Z,2.41
2022-12-18T01:48:58.830Z,2.40
2022-12-18T01:51:27.690Z,2.35
2022-12-18T01:53:54.506Z,2.37
2022-12-18T01:56:21.981Z,2.43
2022-12-18T01:58:58.501Z,2.25
2022-12-18T02:01:26.014Z,2.46
2022-12-18T02:03:53.121Z,2.30
2022-12-18T02:06:35.560Z,2.49
2022-12-18T02:09:21.038Z,2.45
2022-12-18T02:12:04.809Z,2.46
2022-12-18T02:15:00.394Z,2.44
2022-12-18T02:17:42.639Z,2.41
2022-12-18T02:20:44.817Z,2.39
2022-12-18T02:23:24.899Z,2.40
2022-12-18T02:26:03.575Z,2.39
2022-12-18T02:28:33.239Z,2.37
2022-12-18T02:31:04.424Z,2.00
2022-12-18T02:33:32.565Z,2.19
2022-12-18T02:35:59.426Z,2.38
2022-12-18T02:38:27.158Z,2.22
2022-12-18T02:40:55.513Z,2.34
2022-12-18T02:43:23.010Z,2.37
2022-12-18T02:45:56.026Z,2.33
2022-12-18T02:48:25.510Z,2.38
2022-12-18T02:51:10.029Z,2.26
2022-12-18T02:53:59.846Z,2.35
2022-12-18T02:56:33.599Z,2.34
2022-12-18T02:59:08.473Z,2.34
2022-12-18T03:01:48.194Z,2.12
2022-12-18T03:04:22.576Z,2.32
2022-12-18T03:06:55.651Z,2.20
2022-12-18T03:09:25.370Z,2.28
2022-12-18T03:12:14.382Z,1.92
2022-12-18T03:14:41.327Z,2.21
2022-12-18T03:17:14.621Z,2.30
2022-12-18T03:19:41.432Z,2.10
2022-12-18T03:22:08.330Z,2.18
2022-12-18T03:24:43.960Z,1.89
2022-12-18T03:27:12.878Z,2.22
2022-12-18T03:29:48.754Z,2.18
2022-12-18T03:32:24.772Z,2.11
2022-12-18T03:34:51.899Z,2.19
2022-12-18T03:37:21.404Z,2.16
2022-12-18T03:39:48.298Z,2.19
2022-12-18T03:42:28.163Z,2.20
2022-12-18T03:45:10.018Z,2.04
2022-12-18T03:47:48.099Z,2.23
2022-12-18T03:50:47.542Z,2.22
2022-12-18T03:53:23.405Z,2.21
2022-12-18T03:55:50.680Z,2.21
2022-12-18T03:58:19.435Z,2.19
2022-12-18T04:00:55.706Z,2.17
2022-12-18T04:03:26.164Z,2.18
2022-12-18T04:05:53.908Z,2.15
2022-12-18T04:08:22.371Z,2.12
2022-12-18T04:10:57.896Z,2.06
2022-12-18T04:13:34.628Z,2.09
2022-12-18T04:16:03.188Z,2.05
2022-12-18T04:18:30.210Z,2.08
2022-12-18T04:20:57.144Z,2.08
2022-12-18T04:23:24.072Z,2.08
2022-12-18T04:25:51.027Z,2.08
2022-12-18T04:28:27.902Z,2.10
2022-12-18T04:30:54.983Z,2.09
2022-12-18T04:33:22.591Z,1.94
2022-12-18T04:35:49.441Z,2.16
2022-12-18T04:38:16.589Z,2.17
2022-12-18T04:40:44.172Z,2.17
2022-12-18T04:43:19.851Z,2.17
2022-12-18T04:45:46.811Z,1.98
2022-12-18T04:48:13.629Z,2.16
2022-12-18T04:50:40.471Z,2.16
2022-12-18T04:53:07.737Z,2.15
2022-12-18T04:55:34.600Z,2.16
2022-12-18T04:58:01.449Z,2.18
2022-12-18T05:00:28.801Z,2.20
2022-12-18T05:02:56.093Z,2.20
2022-12-18T05:05:23.021Z,2.20
2022-12-18T05:07:49.838Z,2.19
2022-12-18T05:10:16.700Z,2.18
2022-12-18T05:13:02.173Z,2.12
2022-12-18T05:15:32.534Z,2.15
2022-12-18T05:17:59.566Z,2.11
2022-12-18T05:20:26.819Z,2.10
2022-12-18T05:22:54.564Z,1.94
2022-12-18T05:25:21.558Z,2.12
2022-12-18T05:27:48.469Z,2.12
2022-12-18T05:30:15.641Z,2.09
2022-12-18T05:32:42.592Z,2.08
2022-12-18T05:35:10.283Z,2.02
2022-12-18T05:37:42.723Z,2.09
2022-12-18T05:40:10.945Z,2.09
2022-12-18T05:42:37.782Z,1.90
2022-12-18T05:45:05.329Z,2.08
2022-12-18T05:47:32.190Z,2.08
2022-12-18T05:49:59.004Z,2.05
2022-12-18T05:52:25.968Z,2.04
2022-12-18T05:54:52.918Z,2.04
2022-12-18T05:57:19.873Z,2.03
2022-12-18T05:59:46.692Z,2.02
2022-12-18T06:02:13.597Z,2.09
2022-12-18T06:04:40.553Z,2.08
2022-12-18T06:07:07.379Z,2.08
2022-12-18T06:09:34.233Z,1.93
2022-12-18T06:12:01.135Z,1.86
2022-12-18T06:14:28.069Z,2.05
2022-12-18T06:16:54.949Z,2.03
2022-12-18T06:19:21.812Z,2.03
2022-12-18T06:21:48.686Z,2.01
2022-12-18T06:24:15.723Z,2.07
2022-12-18T06:26:42.569Z,2.07
2022-12-18T06:29:09.379Z,2.08
2022-12-18T06:31:36.399Z,2.09
2022-12-18T06:34:04.346Z,2.10
2022-12-18T06:36:31.745Z,2.09
2022-12-18T06:38:58.761Z,2.10
2022-12-18T06:41:25.706Z,2.10
2022-12-18T06:43:56.818Z,2.09
2022-12-18T06:46:26.572Z,2.05
2022-12-18T06:48:53.777Z,2.01
2022-12-18T06:51:21.652Z,2.07
2022-12-18T06:53:48.611Z,2.05
2022-12-18T06:56:15.489Z,2.02
2022-12-18T06:58:42.387Z,2.00
2022-12-18T07:01:11.156Z,1.95
2022-12-18T07:03:43.580Z,2.00
2022-12-18T07:06:18.482Z,2.00
2022-12-18T07:08:45.941Z,1.93
2022-12-18T07:11:13.182Z,1.99
2022-12-18T07:13:40.374Z,1.98
2022-12-18T07:16:20.925Z,1.98
2022-12-18T07:18:49.425Z,2.01
2022-12-18T07:21:17.730Z,2.03
2022-12-18T07:23:45.738Z,2.03
2022-12-18T07:26:13.347Z,2.04
2022-12-18T07:28:40.912Z,2.05
2022-12-18T07:31:11.878Z,2.01
2022-12-18T07:33:39.380Z,1.88
2022-12-18T07:36:07.672Z,2.03
2022-12-18T07:38:34.916Z,2.03
2022-12-18T07:41:02.840Z,2.04
2022-12-18T07:43:29.633Z,2.04
2022-12-18T07:45:56.503Z,1.94
2022-12-18T07:48:23.385Z,1.99
2022-12-18T07:50:50.228Z,2.01
2022-12-18T07:53:17.026Z,2.02
2022-12-18T07:56:17.851Z,1.85
2022-12-18T07:58:30.941Z,2.01
2022-12-18T08:01:05.252Z,2.03
2022-12-18T08:03:33.212Z,2.00
2022-12-18T08:06:04.084Z,1.86
2022-12-18T08:08:31.244Z,2.06
2022-12-18T08:10:58.602Z,2.05
2022-12-18T08:13:25.684Z,2.07
2022-12-18T08:16:06.846Z,2.09
2022-12-18T08:18:38.086Z,2.08
2022-12-18T08:21:19.340Z,2.07
2022-12-18T08:23:48.726Z,1.90
2022-12-18T08:26:16.139Z,2.08
2022-12-18T08:28:43.038Z,1.89
2022-12-18T08:31:09.892Z,2.08
2022-12-18T08:33:37.338Z,2.08
2022-12-18T08:36:05.173Z,2.09
2022-12-18T08:38:33.258Z,2.13
2022-12-18T08:41:20.781Z,2.17
2022-12-18T08:44:06.309Z,2.12
2022-12-18T08:46:42.611Z,2.17
2022-12-18T08:49:09.733Z,1.98
2022-12-18T08:51:36.982Z,2.14
2022-12-18T08:54:04.137Z,2.17
2022-12-18T08:56:34.036Z,2.17
2022-12-18T08:59:00.845Z,2.18
2022-12-18T09:01:28.997Z,2.18
2022-12-18T09:03:55.956Z,2.20
2022-12-18T09:06:22.986Z,2.21
2022-12-18T09:08:50.026Z,2.22
2022-12-18T09:11:24.640Z,2.25
2022-12-18T09:13:51.698Z,2.24
2022-12-18T09:16:18.631Z,2.24
2022-12-18T09:18:45.542Z,2.26
2022-12-18T09:21:14.092Z,2.25
2022-12-18T09:23:41.106Z,2.26
2022-12-18T09:26:08.114Z,2.28
2022-12-18T09:28:35.049Z,2.30
2022-12-18T09:31:05.562Z,2.27
2022-12-18T09:33:32.395Z,2.26
2022-12-18T09:36:02.209Z,2.25
2022-12-18T09:38:29.077Z,2.30
2022-12-18T09:41:01.527Z,2.14
2022-12-18T09:43:36.961Z,2.19
2022-12-18T09:46:06.595Z,2.33
2022-12-18T09:48:39.684Z,1.99
2022-12-18T09:51:56.173Z,2.36
2022-12-18T09:54:26.037Z,2.34
2022-12-18T09:56:53.579Z,2.35
2022-12-18T09:59:37.024Z,2.35
2022-12-18T10:02:18.488Z,2.36
2022-12-18T10:04:46.760Z,2.16
2022-12-18T10:07:28.807Z,2.24
2022-12-18T10:10:19.440Z,2.38
2022-12-18T10:12:52.049Z,2.38
2022-12-18T10:15:40.052Z,2.24
2022-12-18T10:18:20.288Z,2.40
2022-12-18T10:20:57.800Z,2.36
2022-12-18T10:23:42.461Z,2.19
2022-12-18T10:26:13.712Z,2.37
2022-12-18T10:28:42.490Z,2.38
2022-12-18T10:31:20.161Z,2.39
2022-12-18T10:33:47.048Z,2.39
2022-12-18T10:36:13.892Z,2.40
2022-12-18T10:38:41.066Z,2.39
2022-12-18T10:41:27.638Z,2.38
2022-12-18T10:44:18.764Z,2.35
2022-12-18T10:46:46.950Z,2.32
2022-12-18T10:49:41.583Z,2.34
2022-12-18T10:52:18.760Z,2.32
2022-12-18T10:55:02.832Z,2.37
2022-12-18T10:57:39.645Z,2.39
2022-12-18T11:00:25.607Z,2.38
2022-12-18T11:02:52.995Z,2.38
2022-12-18T11:05:37.914Z,2.36
2022-12-18T11:08:05.172Z,2.38
2022-12-18T11:10:33.688Z,2.39
2022-12-18T11:13:23.121Z,2.05
2022-12-18T11:15:50.115Z,2.37
2022-12-18T11:18:28.548Z,2.43
2022-12-18T11:21:06.545Z,2.44
2022-12-18T11:23:33.393Z,2.28
2022-12-18T11:26:01.341Z,2.49
2022-12-18T11:28:42.048Z,2.52
2022-12-18T11:31:11.001Z,2.32
2022-12-18T11:33:38.802Z,2.53
2022-12-18T11:36:05.885Z,2.53
2022-12-18T11:38:40.292Z,2.54
2022-12-18T11:41:19.043Z,2.57
2022-12-18T11:43:57.030Z,2.59
2022-12-18T11:46:37.768Z,2.59
2022-12-18T11:49:13.467Z,2.58
2022-12-18T11:51:53.148Z,2.61
2022-12-18T11:54:19.950Z,2.60
2022-12-18T11:56:52.471Z,2.57
2022-12-18T11:59:43.561Z,2.56
2022-12-18T12:02:39.733Z,2.55
2022-12-18T12:05:12.699Z,2.57
2022-12-18T12:07:54.431Z,2.58
2022-12-18T12:10:59.571Z,2.65
2022-12-18T12:13:50.418Z,2.70
2022-12-18T12:16:19.008Z,2.70
2022-12-18T12:18:53.530Z,2.65
2022-12-18T12:21:40.676Z,2.72
2022-12-18T12:24:18.909Z,2.72
2022-12-18T12:27:23.319Z,2.76
2022-12-18T12:30:08.530Z,2.79
2022-12-18T12:32:57.359Z,2.80
2022-12-18T12:35:33.202Z,2.84
2022-12-18T12:38:11.006Z,2.84
2022-12-18T12:40:56.920Z,2.70
2022-12-18T12:43:36.795Z,2.86
2022-12-18T12:46:10.642Z,2.86
2022-12-18T12:48:50.739Z,2.87
2022-12-18T12:51:18.893Z,2.88
2022-12-18T12:53:46.209Z,2.90
2022-12-18T12:56:14.874Z,2.88
2022-12-18T12:58:51.655Z,2.72
2022-12-18T13:01:37.049Z,2.91
2022-12-18T13:04:34.372Z,2.93
2022-12-18T13:07:15.621Z,2.94
2022-12-18T13:10:19.013Z,2.94
2022-12-18T13:13:22.319Z,2.95
2022-12-18T13:16:07.527Z,2.94
2022-12-18T13:18:34.520Z,2.92
2022-12-18T13:21:03.162Z,2.93
2022-12-18T13:23:37.668Z,2.77
2022-12-18T13:26:07.505Z,2.95
2022-12-18T13:28:34.454Z,2.96
2022-12-18T13:31:02.130Z,2.81
2022-12-18T13:33:34.896Z,2.97
2022-12-18T13:36:23.678Z,3.00
2022-12-18T13:39:10.925Z,3.00
2022-12-18T13:41:38.112Z,2.99
2022-12-18T13:44:40.954Z,2.99
2022-12-18T13:47:35.679Z,3.01
2022-12-18T13:50:26.991Z,3.00
2022-12-18T13:52:56.691Z,2.99
2022-12-18T13:55:23.628Z,2.98
2022-12-18T13:57:50.497Z,2.99
2022-12-18T14:00:29.635Z,3.00
2022-12-18T14:02:57.532Z,2.98
2022-12-18T14:05:31.133Z,2.99
2022-12-18T14:08:06.363Z,2.96
2022-12-18T14:10:47.899Z,2.79
2022-12-18T14:13:26.140Z,2.93
2022-12-18T14:15:53.154Z,2.96
2022-12-18T14:18:31.846Z,2.96
2022-12-18T14:21:00.049Z,2.95
2022-12-18T14:23:32.796Z,2.94
2022-12-18T14:26:05.384Z,2.92
2022-12-18T14:28:33.061Z,2.90
2022-12-18T14:30:59.979Z,2.89
2022-12-18T14:33:27.793Z,2.89
2022-12-18T14:36:04.196Z,2.87
2022-12-18T14:38:34.798Z,2.84
2022-12-18T14:41:05.844Z,2.82
2022-12-18T14:43:36.461Z,2.81
2022-12-18T14:46:04.525Z,2.77
2022-12-18T14:48:39.756Z,2.38
2022-12-18T14:51:06.563Z,2.69
2022-12-18T14:53:37.462Z,2.69
2022-12-18T14:56:11.296Z,2.65
2022-12-18T14:58:38.148Z,2.62
2022-12-18T15:01:05.107Z,2.59
2022-12-18T15:03:32.009Z,2.60
2022-12-18T15:06:15.656Z,2.55
2022-12-18T15:08:43.613Z,2.52
2022-12-18T15:11:30.203Z,2.45
2022-12-18T15:13:59.068Z,2.30
2022-12-18T15:16:25.984Z,2.43
2022-12-18T15:18:52.850Z,2.24
2022-12-18T15:21:20.415Z,2.32
2022-12-18T15:23:51.682Z,2.27
2022-12-18T15:26:20.251Z,2.25
2022-12-18T15:28:53.821Z,2.21
2022-12-18T15:31:25.612Z,2.16
2022-12-18T15:33:53.384Z,2.13
2022-12-18T15:36:26.392Z,1.89
2022-12-18T15:38:56.101Z,1.88
2022-12-18T15:41:28.107Z,2.03
2022-12-18T15:43:54.917Z,2.00
2022-12-18T15:46:23.293Z,1.96
2022-12-18T15:48:52.809Z,1.77
2022-12-18T15:51:24.632Z,1.89
2022-12-18T15:53:53.420Z,1.86
2022-12-18T15:56:38.803Z,1.66
2022-12-18T15:59:13.908Z,1.78
2022-12-18T16:01:42.786Z,1.72
2022-12-18T16:04:21.550Z,1.43
2022-12-18T16:07:13.696Z,1.62
2022-12-18T16:09:36.927Z,1.59
2022-12-18T16:12:04.029Z,1.55
2022-12-18T16:14:30.992Z,1.54
2022-12-18T16:17:04.775Z,1.46
2022-12-18T16:19:31.609Z,1.49
2022-12-18T16:21:59.064Z,1.31
2022-12-18T16:24:27.480Z,1.20
2022-12-18T16:26:54.824Z,1.31
2022-12-18T16:29:25.670Z,1.10
2022-12-18T16:31:53.119Z,1.12
2022-12-18T16:34:22.960Z,1.17
2022-12-18T16:36:52.496Z,1.17
2022-12-18T16:39:19.300Z,1.13
2022-12-18T16:41:46.095Z,1.10
2022-12-18T16:44:13.186Z,0.85
2022-12-18T16:46:40.320Z,1.03
2022-12-18T16:49:07.225Z,0.99
2022-12-18T16:51:34.462Z,0.75
2022-12-18T16:54:04.005Z,0.82
2022-12-18T16:56:34.867Z,0.96
2022-12-18T16:59:02.336Z,0.90
2022-12-18T17:01:32.344Z,0.90
2022-12-18T17:04:04.165Z,0.84
2022-12-18T17:06:33.292Z,0.80
2022-12-18T17:09:00.916Z,0.80
2022-12-18T17:11:28.816Z,0.75
2022-12-18T17:13:56.078Z,0.71
2022-12-18T17:16:25.446Z,0.68
2022-12-18T17:18:55.231Z,0.64
2022-12-18T17:21:22.090Z,0.59
2022-12-18T17:23:48.899Z,0.56
2022-12-18T17:26:15.795Z,0.51
2022-12-18T17:28:42.743Z,0.48
2022-12-18T17:31:18.515Z,0.44
2022-12-18T17:33:45.353Z,0.38
2022-12-18T17:36:12.558Z,0.31
2022-12-18T17:38:39.586Z,0.26
2022-12-18T17:41:08.172Z,0.21
2022-12-18T17:43:45.775Z,0.18
2022-12-18T17:46:15.692Z,0.18
2022-12-18T17:48:42.585Z,0.13
2022-12-18T17:51:11.020Z,0.11
2022-12-18T17:53:41.811Z,-0.10
2022-12-18T17:56:11.725Z,-0.36
2022-12-18T17:58:38.684Z,0.01
2022-12-18T18:01:06.014Z,-0.09
2022-12-18T18:03:33.428Z,-0.06
2022-12-18T18:06:01.557Z,-0.18
2022-12-18T18:08:28.650Z,-0.37
2022-12-18T18:11:15.928Z,-0.18
2022-12-18T18:14:01.467Z,-0.25
2022-12-18T18:16:32.689Z,-0.30
2022-12-18T18:19:02.162Z,-0.37
2022-12-18T18:21:29.158Z,-0.40
2022-12-18T18:23:58.867Z,-0.42
2022-12-18T18:26:29.186Z,-0.51
2022-12-18T18:28:57.814Z,-0.86
2022-12-18T18:31:25.079Z,-0.52
2022-12-18T18:33:52.157Z,-0.54
2022-12-18T18:36:18.974Z,-0.58
2022-12-18T18:38:48.541Z,-0.63
2022-12-18T18:41:15.670Z,-0.83
2022-12-18T18:43:42.898Z,-0.66
2022-12-18T18:46:12.380Z,-0.69
2022-12-18T18:48:40.227Z,-0.73
2022-12-18T18:51:11.799Z,-0.72
2022-12-18T18:53:44.851Z,-0.76
2022-12-18T18:59:00.472Z,-0.82
2022-12-18T19:01:27.486Z,-0.81
2022-12-18T19:03:54.458Z,-0.83
2022-12-18T19:06:26.561Z,-0.84
2022-12-18T19:08:54.241Z,-0.87
2022-12-18T19:11:40.283Z,-0.87
2022-12-18T19:14:08.059Z,-0.87
2022-12-18T19:16:35.064Z,-0.90
2022-12-18T19:19:02.736Z,-0.94
2022-12-18T19:21:31.411Z,-1.09
2022-12-18T19:24:00.758Z,-0.94
2022-12-18T19:26:28.532Z,-0.99
2022-12-18T19:29:03.939Z,-0.95
2022-12-18T19:31:35.523Z,-0.96
2022-12-18T19:34:03.859Z,-1.17
2022-12-18T19:36:30.783Z,-0.99
2022-12-18T19:38:58.855Z,-0.99
2022-12-18T19:41:25.940Z,-0.98
2022-12-18T19:43:56.125Z,-0.97
2022-12-18T19:46:23.707Z,-0.99
2022-12-18T19:48:50.730Z,-0.97
2022-12-18T19:51:19.925Z,-0.97
2022-12-18T19:53:46.890Z,-1.00
2022-12-18T19:56:15.368Z,-1.00
2022-12-18T19:58:42.599Z,-1.01
2022-12-18T20:01:09.714Z,-1.20
2022-12-18T20:03:38.561Z,-1.00
2022-12-18T20:06:10.034Z,-1.40
2022-12-18T20:08:37.179Z,-1.15
2022-12-18T20:11:04.021Z,-1.01
2022-12-18T20:13:31.186Z,-0.99
2022-12-18T20:15:58.277Z,-0.99
2022-12-18T20:18:25.643Z,-1.03
2022-12-18T20:20:52.688Z,-1.00
2022-12-18T20:23:22.844Z,-0.99
2022-12-18T20:25:49.878Z,-0.98
2022-12-18T20:28:16.761Z,-0.96
2022-12-18T20:30:43.592Z,-0.98
2022-12-18T20:33:10.429Z,-0.94
2022-12-18T20:35:37.418Z,-0.94
2022-12-18T20:38:04.964Z,-1.00
2022-12-18T20:40:33.013Z,-1.07
2022-12-18T20:43:00.149Z,-1.12
2022-12-18T20:45:28.526Z,-0.95
2022-12-18T20:47:57.225Z,-0.93
2022-12-18T20:50:24.070Z,-0.93
2022-12-18T20:52:50.864Z,-0.90
2022-12-18T20:55:19.480Z,-0.90
2022-12-18T20:57:46.404Z,-0.91
2022-12-18T21:00:13.764Z,-0.92
2022-12-18T21:02:45.845Z,-0.93
2022-12-18T21:05:12.804Z,-0.94
2022-12-18T21:07:39.617Z,-0.94
2022-12-18T21:10:06.864Z,-1.13
2022-12-18T21:12:40.344Z,-0.95
2022-12-18T21:15:11.172Z,-0.95
2022-12-18T21:17:41.705Z,-1.18
2022-12-18T21:20:13.303Z,-0.93
2022-12-18T21:22:44.616Z,-0.95
2022-12-18T21:25:11.464Z,-0.99
2022-12-18T21:27:38.262Z,-0.97
2022-12-18T21:30:05.819Z,-0.97
2022-12-18T21:32:33.692Z,-0.98
2022-12-18T21:35:00.960Z,-1.00
2022-12-18T21:37:27.848Z,-0.97
2022-12-18T21:39:54.692Z,-0.97
2022-12-18T21:42:40.456Z,-0.96
2022-12-18T21:45:07.799Z,-0.97
2022-12-18T21:47:34.617Z,-1.19
2022-12-18T21:50:01.477Z,-0.98
2022-12-18T21:52:32.052Z,-0.97
2022-12-18T21:55:07.825Z,-0.96
2022-12-18T21:57:36.173Z,-0.96
2022-12-18T22:00:04.426Z,-0.97
2022-12-18T22:02:39.114Z,-0.97
2022-12-18T22:05:06.426Z,-0.98
2022-12-18T22:07:33.845Z,-0.99
2022-12-18T22:10:00.917Z,-0.98
2022-12-18T22:12:35.671Z,-0.99
2022-12-18T22:15:07.139Z,-0.98
2022-12-18T22:17:33.986Z,-0.99
2022-12-18T22:20:01.291Z,-1.22
2022-12-18T22:22:28.474Z,-1.02
2022-12-18T22:24:55.300Z,-1.06
2022-12-18T22:27:22.167Z,-1.02
2022-12-18T22:30:04.279Z,-1.02
2022-12-18T22:32:35.551Z,-1.01
2022-12-18T22:35:08.367Z,-1.02
2022-12-18T22:37:36.772Z,-1.02
2022-12-18T22:40:05.529Z,-1.18
2022-12-18T22:42:32.965Z,-1.03
2022-12-18T22:45:00.462Z,-1.04
2022-12-18T22:47:30.131Z,-1.29
2022-12-18T22:49:58.074Z,-1.05
2022-12-18T22:52:25.369Z,-1.05
2022-12-18T22:54:53.316Z,-1.22
2022-12-18T22:57:21.774Z,-1.07
2022-12-18T22:59:49.720Z,-1.30
2022-12-18T23:02:18.050Z,-1.05
2022-12-18T23:04:45.238Z,-1.10
2022-12-18T23:07:12.627Z,-1.23
2022-12-18T23:09:39.628Z,-1.29
2022-12-18T23:12:06.777Z,-1.13
2022-12-18T23:14:33.609Z,-1.12
2022-12-18T23:17:00.447Z,-1.39
2022-12-18T23:19:27.304Z,-1.14
2022-12-18T23:21:54.537Z,-1.19
2022-12-18T23:24:23.485Z,-1.13
2022-12-18T23:26:50.342Z,-1.14
2022-12-18T23:29:17.154Z,-1.14
2022-12-18T23:31:44.100Z,-1.15
2022-12-18T23:34:12.501Z,-1.15
2022-12-18T23:36:46.392Z,-1.16
2022-12-18T23:39:18.805Z,-1.18
2022-12-18T23:41:58.336Z,-1.17
2022-12-18T23:44:25.378Z,-1.18
2022-12-18T23:46:52.833Z,-1.37
2022-12-18T23:49:19.775Z,-1.37
2022-12-18T23:51:46.690Z,-1.20
2022-12-18T23:54:13.516Z,-1.23
2022-12-18T23:56:40.327Z,-1.23
2022-12-18T23:59:07.189Z,-1.23
